This is the latest recevied weather packets stored in our database for station/object SV3CQY. If no packets are shown the sender has not sent any weather packets the latest 10 day(s).
| Time | Temp. | Humidity | Pressure | Rain* | Wind** | Luminosity | Snow |
|---|---|---|---|---|---|---|---|
| 1777449632 | 19.44° C | 75% | 1016.5 hPa | 0 mm | - | - | - |
| 1777448726 | 18.33° C | 78% | 1016.5 hPa | 0 mm | - | - | - |
| 1777448108 | 18.33° C | 80% | 1016.6 hPa | 0 mm | - | - | - |
| 1777447509 | 17.78° C | 81% | 1016.6 hPa | 0 mm | - | - | - |
| 1777439112 | 17.78° C | 71% | 1016.8 hPa | 0 mm | - | - | - |
| 1777437926 | 16.11° C | 78% | 1016.7 hPa | 0 mm | - | - | - |
| 1777435812 | 12.22° C | 87% | 1016.4 hPa | 0 mm | - | - | - |
| 1777434909 | 12.22° C | 87% | 1016.2 hPa | 0 mm | - | - | - |
| 1777433710 | 12.22° C | 88% | 1016.1 hPa | 0 mm | - | - | - |
| 1777432809 | 12.22° C | 89% | 1016.1 hPa | 0 mm | - | - | - |
| 1777431656 | 11.67° C | 87% | 1016.1 hPa | 0 mm | - | - | - |
| 1777430726 | 12.22° C | 86% | 1016 hPa | 0 mm | - | - | - |
| 1777429830 | 12.22° C | 86% | 1016.1 hPa | 0 mm | - | - | - |
| 1777429508 | 12.22° C | 86% | 1016.1 hPa | 0 mm | - | - | - |
| 1777429209 | 12.22° C | 85% | 1016.1 hPa | 0 mm | - | - | - |
| 1777427711 | 12.22° C | 86% | 1016.2 hPa | 0 mm | - | - | - |
| 1777427128 | 12.22° C | 86% | 1016.2 hPa | 0 mm | - | - | - |
| 1777425019 | 12.78° C | 84% | 1016.2 hPa | 0 mm | - | - | - |
| 1777423215 | 15.56° C | 87% | 1016.3 hPa | 0 mm | - | - | - |
| 1777422011 | 14.44° C | 88% | 1016.5 hPa | 0 mm | - | - | - |
| 1777420828 | 13.33° C | 84% | 1016.6 hPa | 0 mm | - | - | - |
| 1777419941 | 14.44° C | 83% | 1016.5 hPa | 0 mm | - | - | - |
| 1777419029 | 13.89° C | 82% | 1016.6 hPa | 0 mm | - | - | - |
| 1777418710 | 13.89° C | 80% | 1016.7 hPa | 0 mm | - | - | - |
| 1777418412 | 13.89° C | 81% | 1016.7 hPa | 0 mm | - | - | - |
* Rain latest hour (hover to see other rain measurements)
** Current wind speed in m/s (hover to see current wind gust speed)